Time;durP1;ratioP1;P1;durP2;ratioP2;P2;SDS_P1;SDS_P2;PMS_P1;PMS_P2;Temp;Humidity;BMP_temperature;BMP_pressure;BME280_temperature;BME280_humidity;BME280_pressure;Samples;Min_cycle;Max_cycle;Signal;HPM_P1;HPM_P2
2023/08/07 00:00:22;;;;;;;0.65;0.30;;;16.40;91.30;;;;;;4992186;28;20038;-75
2023/08/07 00:02:48;;;;;;;0.10;0.10;;;16.30;91.50;;;;;;4991223;28;20038;-74
2023/08/07 00:05:16;;;;;;;0.98;0.20;;;16.10;91.50;;;;;;4989875;28;20033;-75
2023/08/07 00:07:42;;;;;;;0.60;0.22;;;16.00;92.00;;;;;;4994203;28;20117;-75
2023/08/07 00:10:08;;;;;;;3.03;0.40;;;15.80;92.10;;;;;;4989768;28;20113;-74
2023/08/07 00:12:33;;;;;;;0.45;0.13;;;15.80;92.70;;;;;;4991283;28;20037;-75
2023/08/07 00:15:00;;;;;;;1.13;0.30;;;15.80;92.20;;;;;;4993734;28;20034;-74
2023/08/07 00:17:26;;;;;;;0.20;0.10;;;15.70;92.80;;;;;;4991831;28;20105;-74
2023/08/07 00:19:51;;;;;;;0.80;0.20;;;15.80;92.20;;;;;;4989577;28;20121;-75
2023/08/07 00:22:17;;;;;;;1.05;0.60;;;15.70;91.90;;;;;;4990239;28;20113;-75
2023/08/07 00:24:43;;;;;;;1.85;0.13;;;16.00;91.50;;;;;;4992699;28;20039;-75
2023/08/07 00:27:10;;;;;;;0.60;0.22;;;15.90;91.90;;;;;;4994721;28;20464;-75
2023/08/07 00:29:36;;;;;;;0.35;0.15;;;15.60;92.20;;;;;;4996985;28;20049;-75
2023/08/07 00:32:02;;;;;;;1.15;0.40;;;15.60;92.50;;;;;;4991328;28;20053;-75
2023/08/07 00:34:29;;;;;;;1.30;0.20;;;15.60;92.20;;;;;;4992582;28;20137;-74
2023/08/07 00:36:54;;;;;;;2.00;0.20;;;15.70;92.30;;;;;;4993872;28;20046;-75
2023/08/07 00:39:21;;;;;;;1.55;0.38;;;15.60;91.90;;;;;;4988646;28;20562;-75
2023/08/07 00:41:46;;;;;;;1.27;0.20;;;15.40;92.50;;;;;;4990947;28;20034;-75
2023/08/07 00:44:12;;;;;;;0.68;0.10;;;15.20;93.10;;;;;;4996185;28;20084;-74
2023/08/07 00:46:41;;;;;;;0.88;0.30;;;15.00;93.40;;;;;;4990638;28;20500;-74
2023/08/07 00:49:08;;;;;;;0.30;0.10;;;15.00;93.10;;;;;;4991099;28;20049;-75
2023/08/07 00:51:35;;;;;;;0.57;0.10;;;15.30;92.30;;;;;;4991988;28;20098;-75
2023/08/07 00:54:03;;;;;;;2.25;0.30;;;15.40;92.70;;;;;;4990206;28;20030;-74
2023/08/07 00:56:30;;;;;;;1.00;0.22;;;15.20;93.30;;;;;;4989509;28;20439;-75
2023/08/07 00:58:56;;;;;;;0.75;0.40;;;15.10;92.80;;;;;;4995233;28;20033;-75
2023/08/07 01:01:22;;;;;;;1.38;0.22;;;15.00;93.50;;;;;;4990599;28;20118;-74
2023/08/07 01:03:48;;;;;;;1.08;0.30;;;15.00;93.80;;;;;;4991586;28;20112;-74
2023/08/07 01:06:14;;;;;;;1.17;0.20;;;15.10;92.80;;;;;;4989890;28;20095;-75
2023/08/07 01:08:40;;;;;;;0.63;0.22;;;15.20;92.80;;;;;;4992293;28;20030;-75
2023/08/07 01:11:34;;;;;;;0.75;0.30;;;15.00;92.90;;;;;;4988822;28;20034;-74
2023/08/07 01:14:21;;;;;;;0.83;0.20;;;15.00;92.70;;;;;;4988586;28;20461;-75
2023/08/07 01:17:00;;;;;;;0.30;0.20;;;15.00;92.60;;;;;;4988998;28;20289;-75
2023/08/07 01:19:28;;;;;;;0.25;0.10;;;15.20;92.20;;;;;;4988644;28;20046;-74
2023/08/07 01:22:09;;;;;;;0.30;0.10;;;15.10;92.60;;;;;;4988340;28;20037;-75
2023/08/07 01:24:40;;;;;;;0.38;0.20;;;15.10;92.20;;;;;;4989513;28;20053;-75
2023/08/07 01:27:18;;;;;;;0.08;0.05;;;15.10;92.60;;;;;;4988960;28;20151;-75
2023/08/07 01:30:07;;;;;;;1.95;0.30;;;15.10;92.50;;;;;;4988123;28;20041;-74
2023/08/07 01:32:51;;;;;;;0.45;0.13;;;14.80;93.10;;;;;;4990827;28;20452;-74
2023/08/07 01:35:19;;;;;;;1.33;0.10;;;14.80;92.70;;;;;;4990007;28;20030;-75
2023/08/07 01:37:46;;;;;;;0.43;0.20;;;14.60;92.80;;;;;;4991563;28;20101;-75
2023/08/07 01:40:13;;;;;;;0.35;0.10;;;14.70;92.40;;;;;;4990355;28;20061;-75
2023/08/07 01:42:39;;;;;;;0.25;0.10;;;14.80;92.80;;;;;;4988831;28;20424;-74
2023/08/07 01:45:05;;;;;;;1.55;0.52;;;14.70;92.70;;;;;;4988886;28;20040;-75
2023/08/07 01:47:30;;;;;;;0.10;0.10;;;14.80;92.60;;;;;;4989287;28;20026;-75
2023/08/07 01:49:56;;;;;;;0.68;0.17;;;14.90;92.50;;;;;;4989200;28;20080;-75
2023/08/07 01:52:22;;;;;;;0.60;0.30;;;15.70;91.50;;;;;;4991037;28;20122;-76
2023/08/07 01:54:48;;;;;;;0.20;0.00;;;15.40;91.80;;;;;;4993616;28;20049;-75
2023/08/07 01:57:14;;;;;;;0.73;0.30;;;15.10;92.30;;;;;;4990464;28;20031;-75
2023/08/07 01:59:39;;;;;;;0.75;0.20;;;14.90;92.70;;;;;;4988658;28;20078;-75
2023/08/07 02:02:05;;;;;;;0.57;0.50;;;14.60;92.70;;;;;;4993944;28;20033;-75
2023/08/07 02:04:31;;;;;;;0.55;0.10;;;14.70;92.60;;;;;;4999156;28;20380;-75
2023/08/07 02:06:56;;;;;;;0.75;0.30;;;14.80;92.60;;;;;;4994860;28;20030;-75
2023/08/07 02:09:22;;;;;;;0.57;0.20;;;14.70;92.90;;;;;;4992768;28;20058;-75
2023/08/07 02:11:48;;;;;;;0.65;0.13;;;14.60;92.80;;;;;;4992443;28;20045;-75
2023/08/07 02:14:14;;;;;;;0.73;0.30;;;14.40;93.60;;;;;;5002554;28;20026;-75
2023/08/07 02:16:39;;;;;;;1.02;0.20;;;14.60;92.50;;;;;;4995500;28;20034;-75
2023/08/07 02:19:05;;;;;;;0.20;0.08;;;14.80;92.40;;;;;;4996807;28;20385;-75
2023/08/07 02:21:32;;;;;;;0.35;0.10;;;14.80;92.20;;;;;;4998952;28;20027;-75
2023/08/07 02:23:57;;;;;;;0.30;0.20;;;15.00;92.10;;;;;;4992603;28;20599;-75
2023/08/07 02:26:23;;;;;;;1.65;0.15;;;14.80;92.20;;;;;;4992424;28;20121;-75
2023/08/07 02:28:49;;;;;;;0.93;0.20;;;14.70;92.70;;;;;;4991058;28;20025;-76
2023/08/07 02:31:14;;;;;;;0.20;0.10;;;14.60;92.60;;;;;;4992407;28;20407;-75
2023/08/07 02:33:41;;;;;;;0.22;0.10;;;14.50;92.70;;;;;;4995903;28;20420;-75
2023/08/07 02:36:07;;;;;;;0.80;0.10;;;14.60;92.60;;;;;;4992181;28;20037;-75
2023/08/07 02:38:33;;;;;;;0.22;0.17;;;14.70;92.20;;;;;;4994917;28;20056;-75
2023/08/07 02:40:58;;;;;;;0.65;0.10;;;15.00;91.70;;;;;;4993688;28;20042;-75
2023/08/07 02:43:25;;;;;;;0.28;0.10;;;15.00;92.00;;;;;;4995161;28;20030;-75
2023/08/07 02:45:51;;;;;;;0.20;0.10;;;15.20;91.70;;;;;;4992827;28;20117;-75
2023/08/07 02:48:17;;;;;;;0.32;0.10;;;15.40;91.50;;;;;;4993791;28;20206;-75
2023/08/07 02:50:43;;;;;;;0.85;0.20;;;15.20;92.10;;;;;;4993281;28;20030;-75
2023/08/07 02:53:09;;;;;;;0.45;0.20;;;15.10;92.30;;;;;;4994063;28;20133;-75
2023/08/07 02:55:35;;;;;;;0.57;0.10;;;15.00;92.30;;;;;;4991775;28;20030;-75
2023/08/07 02:58:00;;;;;;;0.73;0.20;;;14.80;92.30;;;;;;4990846;28;20117;-75
2023/08/07 03:00:26;;;;;;;3.95;0.20;;;14.90;92.10;;;;;;4990619;28;20496;-75
2023/08/07 03:02:52;;;;;;;0.55;0.10;;;15.30;91.60;;;;;;4990789;28;20096;-75
2023/08/07 03:05:17;;;;;;;0.55;0.13;;;15.80;90.80;;;;;;4988498;28;20050;-75
2023/08/07 03:07:43;;;;;;;0.40;0.10;;;16.20;90.30;;;;;;4989394;28;20073;-75
2023/08/07 03:10:09;;;;;;;1.95;0.20;;;16.00;90.60;;;;;;4989258;28;20038;-74
2023/08/07 03:12:34;;;;;;;0.52;0.20;;;15.60;91.40;;;;;;4986158;28;20065;-75
2023/08/07 03:15:00;;;;;;;0.75;0.20;;;15.60;91.30;;;;;;4985651;28;20038;-75
2023/08/07 03:17:26;;;;;;;2.15;0.20;;;15.80;91.00;;;;;;4991943;28;20017;-75
2023/08/07 03:19:52;;;;;;;1.80;0.20;;;16.00;90.90;;;;;;4983491;28;20487;-75
2023/08/07 03:22:17;;;;;;;0.93;0.20;;;15.80;90.90;;;;;;4983093;28;20664;-75
2023/08/07 03:24:49;;;;;;;0.22;0.10;;;15.90;90.80;;;;;;4986564;28;20030;-75
2023/08/07 03:27:15;;;;;;;1.25;0.32;;;15.70;91.30;;;;;;4992319;28;20029;-75
2023/08/07 03:29:41;;;;;;;0.30;0.30;;;15.50;91.60;;;;;;4987102;28;20030;-75
2023/08/07 03:32:08;;;;;;;0.32;0.10;;;15.60;91.60;;;;;;4993713;28;20052;-75
2023/08/07 03:34:34;;;;;;;0.10;0.00;;;15.50;91.70;;;;;;4986598;28;20069;-75
2023/08/07 03:36:59;;;;;;;0.32;0.10;;;15.30;91.70;;;;;;4987204;28;20481;-75
2023/08/07 03:39:25;;;;;;;1.58;0.20;;;15.10;92.20;;;;;;4990425;28;20061;-75
2023/08/07 03:41:51;;;;;;;1.23;0.52;;;15.20;92.00;;;;;;4987898;28;20027;-75
2023/08/07 03:44:17;;;;;;;1.45;0.40;;;15.30;91.80;;;;;;4985320;28;20030;-75
2023/08/07 03:46:42;;;;;;;0.75;0.03;;;15.10;92.00;;;;;;4990760;28;20038;-75
2023/08/07 03:49:08;;;;;;;0.63;0.20;;;15.10;92.00;;;;;;4985680;28;20542;-75
2023/08/07 03:51:34;;;;;;;0.40;0.10;;;14.50;93.40;;;;;;4985802;28;20087;-75
2023/08/07 03:53:59;;;;;;;0.30;0.03;;;14.60;92.50;;;;;;4991116;28;20037;-75
2023/08/07 03:56:25;;;;;;;0.55;0.10;;;14.70;92.60;;;;;;4991051;28;20030;-75
2023/08/07 03:58:50;;;;;;;0.95;0.50;;;14.80;92.70;;;;;;4985033;28;20049;-75
2023/08/07 04:01:17;;;;;;;0.57;0.10;;;14.40;93.10;;;;;;4988778;28;20041;-75
2023/08/07 04:03:42;;;;;;;0.85;0.20;;;14.30;93.30;;;;;;4985766;28;20057;-74
2023/08/07 04:06:10;;;;;;;0.70;0.10;;;14.10;93.50;;;;;;4988377;28;20050;-75
2023/08/07 04:08:36;;;;;;;1.02;0.22;;;13.80;94.70;;;;;;4983551;28;20058;-74
2023/08/07 04:11:05;;;;;;;0.93;0.30;;;14.00;93.70;;;;;;4986529;28;20477;-75
2023/08/07 04:13:31;;;;;;;0.57;0.30;;;14.20;93.30;;;;;;4986121;28;20041;-75
2023/08/07 04:15:57;;;;;;;0.52;0.20;;;14.60;92.80;;;;;;4986443;28;20644;-75
2023/08/07 04:18:24;;;;;;;1.00;0.30;;;14.90;92.30;;;;;;4986244;28;20040;-74
2023/08/07 04:20:54;;;;;;;0.47;0.20;;;15.20;91.60;;;;;;4982665;28;20045;-75
2023/08/07 04:23:20;;;;;;;1.08;0.30;;;14.80;93.10;;;;;;4982035;28;20100;-75
2023/08/07 04:25:50;;;;;;;1.58;0.32;;;14.70;92.40;;;;;;4984267;28;20961;-74
2023/08/07 04:28:16;;;;;;;0.65;0.20;;;14.80;92.20;;;;;;4984665;28;20436;-75
2023/08/07 04:30:42;;;;;;;0.55;0.10;;;14.90;91.90;;;;;;4984071;28;20034;-75
2023/08/07 04:33:08;;;;;;;0.55;0.20;;;15.10;92.60;;;;;;4983054;28;20030;-75
2023/08/07 04:35:34;;;;;;;1.88;0.10;;;14.90;92.70;;;;;;4982556;28;20084;-75
2023/08/07 04:38:00;;;;;;;3.35;0.32;;;14.50;92.80;;;;;;4985191;28;20050;-75
2023/08/07 04:40:26;;;;;;;0.68;0.38;;;14.70;92.50;;;;;;4986015;28;20042;-75
2023/08/07 04:42:52;;;;;;;0.77;0.32;;;14.60;93.10;;;;;;4985193;28;20038;-75
2023/08/07 04:45:17;;;;;;;0.85;0.10;;;14.60;93.10;;;;;;4984873;28;20498;-75
2023/08/07 04:47:43;;;;;;;0.75;0.22;;;14.70;92.80;;;;;;4984042;28;20030;-73
2023/08/07 04:50:09;;;;;;;1.08;0.25;;;14.90;92.30;;;;;;4989889;28;20030;-74
2023/08/07 04:52:35;;;;;;;0.85;0.30;;;14.70;92.90;;;;;;4985646;28;20057;-75
2023/08/07 04:55:01;;;;;;;1.08;0.20;;;14.80;92.30;;;;;;4984916;28;20113;-75
2023/08/07 04:57:27;;;;;;;0.57;0.20;;;14.90;92.30;;;;;;4983692;28;20519;-75
2023/08/07 04:59:53;;;;;;;1.48;0.50;;;15.00;92.70;;;;;;4985676;28;20129;-75
2023/08/07 05:02:19;;;;;;;0.57;0.30;;;15.00;92.20;;;;;;4983893;28;20037;-75
2023/08/07 05:04:45;;;;;;;1.02;0.20;;;15.10;91.90;;;;;;4985056;28;20069;-75
2023/08/07 05:07:11;;;;;;;1.35;0.30;;;14.90;92.50;;;;;;4987915;28;20066;-75
2023/08/07 05:09:36;;;;;;;0.88;0.15;;;15.00;92.80;;;;;;4989527;28;20034;-74
2023/08/07 05:12:02;;;;;;;0.20;0.10;;;14.90;92.70;;;;;;4984757;28;20030;-75
2023/08/07 05:14:29;;;;;;;0.60;0.40;;;14.90;92.60;;;;;;4987349;28;20026;-74
2023/08/07 05:16:55;;;;;;;1.10;0.30;;;14.80;92.90;;;;;;4984441;28;20041;-75
2023/08/07 05:19:21;;;;;;;0.60;0.10;;;14.60;93.60;;;;;;4993385;28;20551;-75
2023/08/07 05:21:50;;;;;;;0.63;0.30;;;14.80;92.80;;;;;;4987570;28;20587;-75
2023/08/07 05:24:16;;;;;;;0.93;0.28;;;14.70;93.20;;;;;;4988914;28;20141;-75
2023/08/07 05:26:42;;;;;;;1.55;0.28;;;14.60;93.20;;;;;;4984768;28;20051;-75
2023/08/07 05:29:08;;;;;;;1.45;0.32;;;14.50;93.80;;;;;;4986525;28;20039;-73
2023/08/07 05:31:34;;;;;;;0.60;0.20;;;14.50;93.20;;;;;;4989649;28;20118;-75
2023/08/07 05:34:00;;;;;;;0.57;0.22;;;14.50;93.80;;;;;;4992360;28;20073;-75
2023/08/07 05:36:25;;;;;;;1.90;0.28;;;14.40;93.90;;;;;;4991204;28;20034;-73
2023/08/07 05:38:51;;;;;;;1.90;0.50;;;14.30;94.00;;;;;;4991274;28;20377;-74
2023/08/07 05:41:17;;;;;;;0.43;0.10;;;14.40;94.30;;;;;;4989546;28;20446;-75
2023/08/07 05:43:42;;;;;;;2.58;0.30;;;14.40;93.90;;;;;;4988363;28;20033;-74
2023/08/07 05:46:08;;;;;;;0.38;0.20;;;14.40;94.00;;;;;;4987985;28;20030;-75
2023/08/07 05:48:34;;;;;;;0.35;0.10;;;14.50;93.90;;;;;;4990714;28;20030;-75
2023/08/07 05:50:59;;;;;;;0.77;0.20;;;14.80;93.60;;;;;;4988711;28;20449;-75
2023/08/07 05:53:25;;;;;;;3.88;1.00;;;14.70;93.50;;;;;;4989308;28;20609;-76
2023/08/07 05:55:51;;;;;;;0.45;0.10;;;14.70;93.60;;;;;;4993202;28;20035;-75
2023/08/07 05:58:16;;;;;;;0.43;0.20;;;14.70;93.70;;;;;;4989226;28;20034;-76
2023/08/07 06:00:42;;;;;;;0.93;0.47;;;14.70;93.60;;;;;;4995304;28;20038;-75
2023/08/07 06:03:08;;;;;;;1.35;0.20;;;14.70;93.80;;;;;;4988242;28;20029;-75
2023/08/07 06:05:34;;;;;;;0.95;0.35;;;15.00;92.40;;;;;;4988286;28;20118;-75
2023/08/07 06:08:00;;;;;;;1.38;0.50;;;15.20;93.00;;;;;;4989788;28;20038;-76
2023/08/07 06:10:26;;;;;;;0.85;0.32;;;15.20;93.20;;;;;;4984219;28;20479;-76
2023/08/07 06:12:52;;;;;;;0.57;0.20;;;15.20;93.40;;;;;;4990497;28;20365;-76
2023/08/07 06:15:19;;;;;;;0.43;0.25;;;15.30;93.40;;;;;;4986564;28;20049;-75
2023/08/07 06:17:44;;;;;;;1.98;0.30;;;15.40;92.10;;;;;;4991299;28;20181;-75
2023/08/07 06:20:11;;;;;;;5.03;0.65;;;15.60;91.80;;;;;;4989581;28;20042;-75
2023/08/07 06:22:38;;;;;;;0.68;0.20;;;15.80;92.10;;;;;;4993012;28;20066;-74
2023/08/07 06:25:05;;;;;;;1.80;0.32;;;15.80;91.80;;;;;;4986971;28;20380;-75
2023/08/07 06:27:31;;;;;;;0.45;0.17;;;16.10;91.30;;;;;;4988853;28;20034;-74
2023/08/07 06:29:57;;;;;;;0.80;0.25;;;16.30;90.50;;;;;;4994905;28;20027;-75
2023/08/07 06:32:24;;;;;;;2.40;0.38;;;16.50;90.70;;;;;;4987171;28;20030;-75
2023/08/07 06:34:50;;;;;;;0.30;0.10;;;16.60;90.50;;;;;;4985818;28;20080;-75
2023/08/07 06:37:15;;;;;;;0.43;0.20;;;16.70;91.10;;;;;;4987717;28;20046;-75
2023/08/07 06:39:41;;;;;;;0.63;0.20;;;16.80;90.10;;;;;;4985553;28;20133;-75
2023/08/07 06:42:07;;;;;;;4.32;0.40;;;17.00;89.90;;;;;;4985426;28;20116;-75
2023/08/07 06:44:33;;;;;;;2.63;0.40;;;17.00;90.00;;;;;;4985898;28;20480;-75
2023/08/07 06:46:58;;;;;;;1.35;0.43;;;17.20;90.60;;;;;;4989120;28;20072;-75
2023/08/07 06:49:24;;;;;;;1.05;0.35;;;17.30;90.10;;;;;;4993780;28;20404;-75
2023/08/07 06:51:50;;;;;;;1.90;0.10;;;17.50;90.10;;;;;;4995418;28;20392;-75
2023/08/07 06:54:15;;;;;;;0.43;0.13;;;17.60;90.10;;;;;;4996954;28;20037;-75
2023/08/07 06:56:42;;;;;;;1.83;0.77;;;17.80;89.10;;;;;;4993559;28;20213;-76
2023/08/07 06:59:08;;;;;;;0.65;0.20;;;18.00;87.00;;;;;;4991932;28;20113;-76
2023/08/07 07:01:33;;;;;;;0.80;0.30;;;18.20;87.90;;;;;;4986928;28;20122;-75
2023/08/07 07:03:59;;;;;;;2.15;0.10;;;18.30;87.00;;;;;;4986219;28;20342;-76
2023/08/07 07:06:25;;;;;;;0.85;0.30;;;18.50;87.00;;;;;;4989322;28;20061;-76
2023/08/07 07:08:54;;;;;;;1.60;0.40;;;18.40;86.50;;;;;;4986227;28;20041;-75
2023/08/07 07:11:20;;;;;;;0.45;0.22;;;18.80;86.60;;;;;;4986257;28;26514;-76
2023/08/07 07:13:46;;;;;;;0.35;0.20;;;19.00;86.10;;;;;;4988236;28;20089;-75
2023/08/07 07:16:13;;;;;;;1.23;0.25;;;19.20;85.70;;;;;;4989818;28;20491;-76
2023/08/07 07:18:39;;;;;;;1.17;0.30;;;19.70;84.50;;;;;;4993114;28;20054;-76
2023/08/07 07:21:04;;;;;;;1.05;0.50;;;20.60;83.60;;;;;;4996172;28;20037;-76
2023/08/07 07:23:30;;;;;;;0.32;0.10;;;21.70;81.50;;;;;;4994041;28;20034;-75
2023/08/07 07:25:57;;;;;;;3.13;0.20;;;22.50;80.10;;;;;;4995332;28;20030;-75
2023/08/07 07:28:23;;;;;;;1.38;0.40;;;23.10;79.60;;;;;;4992532;28;20121;-75
2023/08/07 07:30:52;;;;;;;1.52;0.38;;;23.30;77.90;;;;;;4986320;28;20038;-75
2023/08/07 07:33:18;;;;;;;1.33;0.30;;;23.90;77.60;;;;;;4996975;28;20379;-75
2023/08/07 07:35:44;;;;;;;0.73;0.30;;;24.60;75.50;;;;;;4995081;28;20026;-75
2023/08/07 07:38:10;;;;;;;1.20;0.40;;;25.00;74.80;;;;;;5001078;28;20057;-75
2023/08/07 07:40:36;;;;;;;1.08;0.40;;;24.10;74.90;;;;;;4992617;28;20049;-75
2023/08/07 07:43:02;;;;;;;0.80;0.22;;;22.90;75.50;;;;;;4995978;28;20033;-75
2023/08/07 07:45:27;;;;;;;1.00;0.30;;;23.20;76.10;;;;;;4993356;28;20073;-74
2023/08/07 07:47:53;;;;;;;2.50;0.20;;;23.80;75.10;;;;;;4997044;28;20142;-75
2023/08/07 07:50:19;;;;;;;0.55;0.30;;;24.10;75.70;;;;;;4995642;28;20480;-75
2023/08/07 07:52:44;;;;;;;0.93;0.30;;;24.90;75.20;;;;;;4996861;28;20045;-75
2023/08/07 07:55:12;;;;;;;0.55;0.20;;;24.50;75.00;;;;;;4990906;28;20432;-75
2023/08/07 07:57:37;;;;;;;0.93;0.30;;;23.10;74.50;;;;;;4989447;28;20025;-75
2023/08/07 08:00:07;;;;;;;0.93;0.32;;;20.70;78.00;;;;;;4985757;28;20053;-75
2023/08/07 08:02:33;;;;;;;1.33;0.40;;;19.70;80.60;;;;;;4987549;28;20049;-75
2023/08/07 08:04:58;;;;;;;2.50;0.73;;;19.30;82.10;;;;;;4988864;28;20579;-75
2023/08/07 08:07:25;;;;;;;0.75;0.20;;;19.10;83.30;;;;;;4995224;28;20030;-75
2023/08/07 08:09:50;;;;;;;0.32;0.10;;;19.10;82.30;;;;;;4992504;28;20034;-74
2023/08/07 08:12:16;;;;;;;1.17;0.30;;;19.40;83.90;;;;;;4992371;28;20087;-75
2023/08/07 08:14:42;;;;;;;1.30;0.68;;;19.30;84.60;;;;;;4986520;28;20092;-75
2023/08/07 08:17:08;;;;;;;1.15;0.47;;;19.40;83.20;;;;;;4988918;28;20110;-74
2023/08/07 08:19:33;;;;;;;4.95;0.43;;;19.40;83.50;;;;;;4992994;28;20066;-75
2023/08/07 08:21:59;;;;;;;1.33;0.22;;;19.60;84.00;;;;;;4993711;28;20034;-75
2023/08/07 08:24:25;;;;;;;0.77;0.25;;;21.40;80.40;;;;;;4984474;28;20030;-74
2023/08/07 08:26:50;;;;;;;0.60;0.30;;;22.40;78.40;;;;;;4986221;28;20034;-75
2023/08/07 08:29:16;;;;;;;0.85;0.30;;;23.90;77.70;;;;;;4986897;28;20034;-75
2023/08/07 08:31:41;;;;;;;1.58;0.50;;;23.40;76.60;;;;;;4985664;28;20642;-75
2023/08/07 08:34:07;;;;;;;1.13;0.20;;;23.60;77.50;;;;;;4996628;28;20034;-75
2023/08/07 08:36:33;;;;;;;0.38;0.17;;;23.20;75.70;;;;;;4986818;28;20046;-75
2023/08/07 08:38:58;;;;;;;1.52;0.30;;;23.10;80.00;;;;;;4985621;28;20046;-74
2023/08/07 08:41:25;;;;;;;2.30;0.70;;;23.30;77.90;;;;;;4995006;28;20060;-75
2023/08/07 08:43:53;;;;;;;1.05;0.38;;;23.10;78.20;;;;;;4999882;28;20030;-75
2023/08/07 08:46:23;;;;;;;0.88;0.20;;;22.40;79.10;;;;;;4984627;28;20042;-75
2023/08/07 08:48:51;;;;;;;3.58;0.40;;;21.50;80.10;;;;;;4985922;28;20070;-74
2023/08/07 08:51:19;;;;;;;0.85;0.35;;;21.20;80.70;;;;;;4985535;28;20030;-73
2023/08/07 08:53:46;;;;;;;2.50;0.30;;;21.10;83.50;;;;;;4986422;28;20034;-74
2023/08/07 08:56:12;;;;;;;2.15;0.30;;;21.00;81.30;;;;;;4985746;28;20041;-74
2023/08/07 08:58:39;;;;;;;1.08;0.30;;;21.60;82.00;;;;;;4988799;28;20510;-74
2023/08/07 09:01:06;;;;;;;0.77;0.30;;;21.20;81.60;;;;;;4999179;28;20430;-74
2023/08/07 09:03:32;;;;;;;1.48;0.55;;;21.20;81.70;;;;;;4989799;28;20137;-73
2023/08/07 09:05:59;;;;;;;0.88;0.30;;;21.20;82.50;;;;;;4989488;28;20033;-73
2023/08/07 09:08:31;;;;;;;0.93;0.35;;;21.60;82.20;;;;;;4984335;28;20026;-73
2023/08/07 09:10:56;;;;;;;2.90;0.50;;;21.40;80.10;;;;;;4990370;28;20042;-73
2023/08/07 09:13:24;;;;;;;1.65;0.50;;;21.60;82.30;;;;;;4987467;28;20690;-73
2023/08/07 09:15:53;;;;;;;2.42;0.50;;;21.70;82.20;;;;;;4986702;28;20781;-73
2023/08/07 09:18:20;;;;;;;2.58;0.88;;;21.80;78.90;;;;;;4984854;28;20081;-74
2023/08/07 09:20:46;;;;;;;3.72;1.08;;;22.00;81.70;;;;;;4985661;28;20177;-73
2023/08/07 09:23:12;;;;;;;0.88;0.28;;;22.00;78.90;;;;;;4990474;28;20030;-73
2023/08/07 09:25:38;;;;;;;1.17;0.38;;;21.90;80.00;;;;;;4983895;28;20104;-73
2023/08/07 09:28:05;;;;;;;0.65;0.30;;;22.20;82.10;;;;;;4989403;28;20034;-73
2023/08/07 09:30:32;;;;;;;1.70;0.32;;;22.20;79.50;;;;;;4989724;28;20492;-73
2023/08/07 09:32:59;;;;;;;2.30;0.40;;;22.40;79.50;;;;;;4983804;28;20033;-74
2023/08/07 09:35:25;;;;;;;1.83;0.47;;;22.60;80.50;;;;;;4985279;28;20455;-73
2023/08/07 09:37:51;;;;;;;0.77;0.38;;;22.60;80.50;;;;;;4991388;28;20061;-74
2023/08/07 09:40:18;;;;;;;1.23;0.52;;;22.60;78.40;;;;;;4984818;28;20038;-74
2023/08/07 09:42:43;;;;;;;1.65;0.47;;;22.90;80.10;;;;;;4985338;28;20503;-73
2023/08/07 09:45:26;;;;;;;0.75;0.47;;;23.00;79.60;;;;;;4988076;28;20026;-73
2023/08/07 09:48:06;;;;;;;2.25;0.45;;;22.90;76.60;;;;;;4984232;28;20109;-74
2023/08/07 09:50:32;;;;;;;0.93;0.40;;;23.00;79.40;;;;;;4984804;28;20472;-74
2023/08/07 09:52:58;;;;;;;0.82;0.30;;;23.30;77.50;;;;;;4983412;28;20036;-74
2023/08/07 09:55:25;;;;;;;2.30;0.45;;;23.30;78.20;;;;;;4988829;28;20527;-74
2023/08/07 09:57:51;;;;;;;0.77;0.50;;;23.20;79.80;;;;;;4984208;28;20030;-74
2023/08/07 10:00:21;;;;;;;1.25;0.30;;;23.20;75.50;;;;;;4983019;28;20129;-73
2023/08/07 10:02:48;;;;;;;2.20;0.32;;;23.30;78.40;;;;;;4986409;28;20510;-74
2023/08/07 10:05:15;;;;;;;1.08;0.38;;;23.40;77.20;;;;;;4985633;28;20038;-74
2023/08/07 10:07:41;;;;;;;1.23;0.52;;;23.40;78.40;;;;;;4983195;28;20030;-74
2023/08/07 10:10:09;;;;;;;1.23;0.40;;;23.50;77.40;;;;;;4983353;28;20089;-74
2023/08/07 10:12:36;;;;;;;1.38;0.68;;;23.50;77.60;;;;;;4993724;28;20026;-74
2023/08/07 10:15:02;;;;;;;1.25;0.38;;;23.30;75.70;;;;;;4989379;28;20066;-73
2023/08/07 10:17:29;;;;;;;0.65;0.28;;;23.50;75.90;;;;;;4992521;28;20101;-74
2023/08/07 10:19:57;;;;;;;0.95;0.35;;;23.60;75.70;;;;;;4992717;28;20037;-73
2023/08/07 10:22:29;;;;;;;2.63;0.40;;;23.90;77.60;;;;;;4989836;28;20030;-74
2023/08/07 10:24:58;;;;;;;1.00;0.30;;;24.30;76.90;;;;;;4987350;28;20121;-74
2023/08/07 10:27:27;;;;;;;0.30;0.17;;;24.80;77.20;;;;;;4988844;28;20064;-73
2023/08/07 10:29:54;;;;;;;2.67;0.60;;;24.80;75.70;;;;;;4994849;28;20026;-74
2023/08/07 10:32:24;;;;;;;1.40;0.43;;;24.70;75.90;;;;;;4992647;28;20039;-73
2023/08/07 10:34:50;;;;;;;6.32;0.80;;;24.90;75.60;;;;;;4995582;28;20030;-73
2023/08/07 10:37:44;;;;;;;0.82;0.40;;;24.80;77.20;;;;;;4996218;28;20050;-74
2023/08/07 10:40:12;;;;;;;;;;;24.50;71.80;;;;;;4993258;28;20045;-73
2023/08/07 10:42:59;;;;;;;0.68;0.30;;;24.80;76.60;;;;;;4996795;28;20011;-74
2023/08/07 10:45:26;;;;;;;1.30;0.20;;;24.60;72.60;;;;;;4996430;28;20122;-73
2023/08/07 10:48:09;;;;;;;1.95;0.20;;;24.40;73.30;;;;;;4997324;28;20042;-74
2023/08/07 10:50:55;;;;;;;0.85;0.30;;;24.50;74.20;;;;;;4987914;28;20052;-74
2023/08/07 10:53:31;;;;;;;1.02;0.40;;;24.40;75.60;;;;;;4981350;28;20558;-73
2023/08/07 10:56:06;;;;;;;16.15;1.20;;;24.40;75.80;;;;;;4994983;28;20061;-74
2023/08/07 10:58:36;;;;;;;6.47;0.60;;;24.20;72.70;;;;;;4997354;28;20022;-74
2023/08/07 11:01:20;;;;;;;0.98;0.28;;;24.50;75.90;;;;;;4986811;28;20092;-74
2023/08/07 11:03:52;;;;;;;5.88;0.40;;;24.50;72.50;;;;;;4986285;28;20034;-73
2023/08/07 11:06:22;;;;;;;1.33;0.13;;;24.60;72.60;;;;;;4997962;28;20028;-73
2023/08/07 11:08:48;;;;;;;28.92;2.08;;;24.90;75.80;;;;;;4987192;28;20034;-73
2023/08/07 11:11:14;;;;;;;0.82;0.32;;;24.70;74.40;;;;;;4987669;28;20550;-73
2023/08/07 11:13:40;;;;;;;2.22;0.47;;;24.60;75.30;;;;;;4990002;28;20095;-74
2023/08/07 11:16:06;;;;;;;1.60;0.43;;;24.50;71.20;;;;;;4989990;28;20038;-74
2023/08/07 11:18:32;;;;;;;0.77;0.22;;;24.40;70.60;;;;;;4988155;28;20021;-74
2023/08/07 11:20:59;;;;;;;1.00;0.40;;;24.70;76.90;;;;;;4989342;28;20054;-74
2023/08/07 11:23:28;;;;;;;0.28;0.17;;;24.90;75.80;;;;;;4985695;28;20057;-73
2023/08/07 11:25:54;;;;;;;1.02;0.40;;;25.00;77.10;;;;;;4992810;28;20033;-73
2023/08/07 11:28:21;;;;;;;2.35;0.43;;;25.10;72.60;;;;;;4992946;28;20045;-73
2023/08/07 11:30:50;;;;;;;1.20;0.43;;;25.00;74.30;;;;;;4983687;28;20034;-73
2023/08/07 11:33:19;;;;;;;2.90;0.68;;;25.10;72.10;;;;;;4982436;28;20030;-74
2023/08/07 11:35:45;;;;;;;0.95;0.30;;;25.20;75.30;;;;;;4985986;28;20094;-73
2023/08/07 11:38:11;;;;;;;2.17;0.38;;;25.60;73.40;;;;;;4986287;28;20054;-74
2023/08/07 11:40:38;;;;;;;1.02;0.50;;;25.50;75.80;;;;;;4986654;28;20121;-73
2023/08/07 11:43:04;;;;;;;1.40;0.38;;;25.50;73.50;;;;;;4989920;28;20176;-73
2023/08/07 11:45:29;;;;;;;0.93;0.35;;;25.60;74.80;;;;;;4984844;28;20085;-74
2023/08/07 11:47:59;;;;;;;2.05;0.65;;;25.40;69.40;;;;;;4993777;28;21089;-73
2023/08/07 11:50:27;;;;;;;1.20;0.52;;;25.40;71.20;;;;;;4986598;28;20030;-73
2023/08/07 11:52:53;;;;;;;1.27;0.50;;;25.70;73.60;;;;;;4988973;28;20042;-73
2023/08/07 11:55:19;;;;;;;1.08;0.40;;;25.80;73.40;;;;;;4983454;28;20041;-73
2023/08/07 11:57:47;;;;;;;0.82;0.30;;;25.70;69.50;;;;;;4986962;28;20042;-73
2023/08/07 12:00:14;;;;;;;2.17;0.30;;;25.50;72.10;;;;;;4988532;28;20034;-73
2023/08/07 12:02:43;;;;;;;1.05;0.52;;;25.40;73.10;;;;;;4982934;28;20469;-73
2023/08/07 12:05:11;;;;;;;0.95;0.47;;;25.40;72.00;;;;;;4993912;28;20034;-74
2023/08/07 12:07:37;;;;;;;0.75;0.20;;;25.40;72.70;;;;;;4990487;28;20527;-73
2023/08/07 12:10:10;;;;;;;0.85;0.32;;;25.60;69.30;;;;;;4985691;28;20111;-73
2023/08/07 12:12:37;;;;;;;3.45;0.68;;;25.90;72.20;;;;;;4985569;28;20032;-73
2023/08/07 12:15:09;;;;;;;4.10;0.45;;;25.90;74.40;;;;;;4984029;28;20030;-73
2023/08/07 12:17:38;;;;;;;1.15;0.32;;;25.90;75.80;;;;;;4982729;28;20030;-73
2023/08/07 12:20:10;;;;;;;1.38;0.43;;;26.00;75.00;;;;;;4985160;28;20046;-74
2023/08/07 12:22:36;;;;;;;2.55;0.50;;;25.80;74.70;;;;;;4984266;28;20030;-74
2023/08/07 12:25:02;;;;;;;1.20;0.30;;;26.00;70.40;;;;;;4985326;28;20083;-73
2023/08/07 12:27:28;;;;;;;0.75;0.43;;;25.90;68.80;;;;;;4981338;28;20038;-74
2023/08/07 12:29:54;;;;;;;0.63;0.28;;;26.00;73.20;;;;;;4986499;28;20058;-74
2023/08/07 12:32:19;;;;;;;4.68;0.70;;;26.20;71.40;;;;;;4984429;28;20054;-73
2023/08/07 12:34:45;;;;;;;1.23;0.50;;;26.40;73.70;;;;;;4987987;28;20038;-73
2023/08/07 12:37:10;;;;;;;0.93;0.35;;;26.30;71.60;;;;;;4985436;28;20042;-74
2023/08/07 12:39:37;;;;;;;1.25;0.40;;;26.50;71.70;;;;;;4989890;28;20231;-73
2023/08/07 12:42:05;;;;;;;1.73;0.50;;;26.30;69.60;;;;;;4992169;28;20025;-74
2023/08/07 12:44:30;;;;;;;1.30;0.50;;;26.20;69.50;;;;;;4986803;28;20030;-74
2023/08/07 12:46:56;;;;;;;1.90;0.52;;;26.10;67.50;;;;;;4990164;28;20033;-73